sensor_id;sensor_type;location;lat;lon;timestamp;temperature;humidity
16076;DHT22;8142;48.242;11.644;2023-05-14T00:01:41;12.20;99.90
16076;DHT22;8142;48.242;11.644;2023-05-14T00:04:07;12.10;99.90
16076;DHT22;8142;48.242;11.644;2023-05-14T00:06:33;12.10;99.90
16076;DHT22;8142;48.242;11.644;2023-05-14T00:08:59;12.10;99.90
16076;DHT22;8142;48.242;11.644;2023-05-14T00:11:25;12.10;99.90
16076;DHT22;8142;48.242;11.644;2023-05-14T00:13:50;12.10;99.90
16076;DHT22;8142;48.242;11.644;2023-05-14T00:16:16;12.10;99.90
16076;DHT22;8142;48.242;11.644;2023-05-14T00:18:42;12.10;99.90
16076;DHT22;8142;48.242;11.644;2023-05-14T00:21:08;12.10;99.90
16076;DHT22;8142;48.242;11.644;2023-05-14T00:23:34;12.10;99.90
16076;DHT22;8142;48.242;11.644;2023-05-14T00:26:00;12.10;99.90
16076;DHT22;8142;48.242;11.644;2023-05-14T00:28:25;12.00;99.90
16076;DHT22;8142;48.242;11.644;2023-05-14T00:30:51;12.10;99.90
16076;DHT22;8142;48.242;11.644;2023-05-14T00:33:17;12.00;99.90
16076;DHT22;8142;48.242;11.644;2023-05-14T00:35:43;12.10;99.90
16076;DHT22;8142;48.242;11.644;2023-05-14T00:38:09;12.00;99.90
16076;DHT22;8142;48.242;11.644;2023-05-14T00:40:41;11.90;99.90
16076;DHT22;8142;48.242;11.644;2023-05-14T00:43:10;11.90;99.90
16076;DHT22;8142;48.242;11.644;2023-05-14T00:45:37;11.90;99.90
16076;DHT22;8142;48.242;11.644;2023-05-14T00:48:03;11.90;99.90
16076;DHT22;8142;48.242;11.644;2023-05-14T00:50:30;11.90;99.90
16076;DHT22;8142;48.242;11.644;2023-05-14T00:52:56;11.90;99.90
16076;DHT22;8142;48.242;11.644;2023-05-14T00:55:22;11.80;99.90
16076;DHT22;8142;48.242;11.644;2023-05-14T00:57:49;11.80;99.90
16076;DHT22;8142;48.242;11.644;2023-05-14T01:00:15;11.80;99.90
16076;DHT22;8142;48.242;11.644;2023-05-14T01:02:41;11.80;99.90
16076;DHT22;8142;48.242;11.644;2023-05-14T01:05:07;11.80;99.90
16076;DHT22;8142;48.242;11.644;2023-05-14T01:10:09;11.80;99.90
16076;DHT22;8142;48.242;11.644;2023-05-14T01:12:46;11.80;99.90
16076;DHT22;8142;48.242;11.644;2023-05-14T01:15:23;11.80;99.90
16076;DHT22;8142;48.242;11.644;2023-05-14T01:18:04;11.70;99.90
16076;DHT22;8142;48.242;11.644;2023-05-14T01:20:30;11.70;99.90
16076;DHT22;8142;48.242;11.644;2023-05-14T01:22:56;11.70;99.90
16076;DHT22;8142;48.242;11.644;2023-05-14T01:25:22;11.70;99.90
16076;DHT22;8142;48.242;11.644;2023-05-14T01:28:08;11.70;99.90
16076;DHT22;8142;48.242;11.644;2023-05-14T01:30:40;11.70;99.90
16076;DHT22;8142;48.242;11.644;2023-05-14T01:33:13;11.60;99.90
16076;DHT22;8142;48.242;11.644;2023-05-14T01:35:41;11.70;99.90
16076;DHT22;8142;48.242;11.644;2023-05-14T01:38:10;11.70;99.90
16076;DHT22;8142;48.242;11.644;2023-05-14T01:40:37;11.70;99.90
16076;DHT22;8142;48.242;11.644;2023-05-14T01:43:04;11.70;99.90
16076;DHT22;8142;48.242;11.644;2023-05-14T01:45:30;11.70;99.90
16076;DHT22;8142;48.242;11.644;2023-05-14T01:47:56;11.60;99.90
16076;DHT22;8142;48.242;11.644;2023-05-14T01:50:22;11.60;99.90
16076;DHT22;8142;48.242;11.644;2023-05-14T01:52:48;11.60;99.90
16076;DHT22;8142;48.242;11.644;2023-05-14T01:55:15;11.60;99.90
16076;DHT22;8142;48.242;11.644;2023-05-14T01:57:42;11.60;99.90
16076;DHT22;8142;48.242;11.644;2023-05-14T02:00:08;11.50;99.90
16076;DHT22;8142;48.242;11.644;2023-05-14T02:02:35;11.50;99.90
16076;DHT22;8142;48.242;11.644;2023-05-14T02:05:01;11.60;99.90
16076;DHT22;8142;48.242;11.644;2023-05-14T02:07:27;11.50;99.90
16076;DHT22;8142;48.242;11.644;2023-05-14T02:09:53;11.50;99.90
16076;DHT22;8142;48.242;11.644;2023-05-14T02:12:19;11.50;99.90
16076;DHT22;8142;48.242;11.644;2023-05-14T02:14:44;11.50;99.90
16076;DHT22;8142;48.242;11.644;2023-05-14T02:17:10;11.50;99.90
16076;DHT22;8142;48.242;11.644;2023-05-14T02:19:36;11.50;99.90
16076;DHT22;8142;48.242;11.644;2023-05-14T02:22:02;11.60;99.90
16076;DHT22;8142;48.242;11.644;2023-05-14T02:24:28;11.50;99.90
16076;DHT22;8142;48.242;11.644;2023-05-14T02:26:54;11.50;99.90
16076;DHT22;8142;48.242;11.644;2023-05-14T02:29:20;11.50;99.90
16076;DHT22;8142;48.242;11.644;2023-05-14T02:31:46;11.50;99.90
16076;DHT22;8142;48.242;11.644;2023-05-14T02:34:12;11.50;99.90
16076;DHT22;8142;48.242;11.644;2023-05-14T02:36:37;11.50;99.90
16076;DHT22;8142;48.242;11.644;2023-05-14T02:39:03;11.50;99.90
16076;DHT22;8142;48.242;11.644;2023-05-14T02:41:29;11.50;99.90
16076;DHT22;8142;48.242;11.644;2023-05-14T02:43:55;11.50;99.90
16076;DHT22;8142;48.242;11.644;2023-05-14T02:46:21;11.50;99.90
16076;DHT22;8142;48.242;11.644;2023-05-14T02:48:47;11.50;99.90
16076;DHT22;8142;48.242;11.644;2023-05-14T02:51:13;11.50;99.90
16076;DHT22;8142;48.242;11.644;2023-05-14T02:53:38;11.40;99.90
16076;DHT22;8142;48.242;11.644;2023-05-14T02:56:04;11.40;99.90
16076;DHT22;8142;48.242;11.644;2023-05-14T02:58:30;11.40;99.90
16076;DHT22;8142;48.242;11.644;2023-05-14T03:00:56;11.40;99.90
16076;DHT22;8142;48.242;11.644;2023-05-14T03:03:22;11.50;99.90
16076;DHT22;8142;48.242;11.644;2023-05-14T03:05:48;11.40;99.90
16076;DHT22;8142;48.242;11.644;2023-05-14T03:08:14;11.50;99.90
16076;DHT22;8142;48.242;11.644;2023-05-14T03:10:40;11.40;99.90
16076;DHT22;8142;48.242;11.644;2023-05-14T03:13:06;11.40;99.90
16076;DHT22;8142;48.242;11.644;2023-05-14T03:15:32;11.40;99.90
16076;DHT22;8142;48.242;11.644;2023-05-14T03:17:57;11.50;99.90
16076;DHT22;8142;48.242;11.644;2023-05-14T03:20:23;11.40;99.90
16076;DHT22;8142;48.242;11.644;2023-05-14T03:22:50;11.50;99.90
16076;DHT22;8142;48.242;11.644;2023-05-14T03:25:16;11.40;99.90
16076;DHT22;8142;48.242;11.644;2023-05-14T03:27:42;11.40;99.90
16076;DHT22;8142;48.242;11.644;2023-05-14T03:30:08;11.40;99.90
16076;DHT22;8142;48.242;11.644;2023-05-14T03:32:35;11.40;99.90
16076;DHT22;8142;48.242;11.644;2023-05-14T03:35:02;11.40;99.90
16076;DHT22;8142;48.242;11.644;2023-05-14T03:37:28;11.40;99.90
16076;DHT22;8142;48.242;11.644;2023-05-14T03:39:54;11.40;99.90
16076;DHT22;8142;48.242;11.644;2023-05-14T03:42:20;11.40;99.90
16076;DHT22;8142;48.242;11.644;2023-05-14T03:44:46;11.50;99.90
16076;DHT22;8142;48.242;11.644;2023-05-14T03:47:11;11.50;99.90
16076;DHT22;8142;48.242;11.644;2023-05-14T03:49:37;11.50;99.90
16076;DHT22;8142;48.242;11.644;2023-05-14T03:52:03;11.50;99.90
16076;DHT22;8142;48.242;11.644;2023-05-14T03:54:29;11.40;99.90
16076;DHT22;8142;48.242;11.644;2023-05-14T03:56:55;11.50;99.90
16076;DHT22;8142;48.242;11.644;2023-05-14T03:59:21;11.50;99.90
16076;DHT22;8142;48.242;11.644;2023-05-14T04:01:47;11.50;99.90
16076;DHT22;8142;48.242;11.644;2023-05-14T04:04:13;11.40;99.90
16076;DHT22;8142;48.242;11.644;2023-05-14T04:06:39;11.30;99.90
16076;DHT22;8142;48.242;11.644;2023-05-14T04:09:04;11.20;99.90
16076;DHT22;8142;48.242;11.644;2023-05-14T04:11:30;11.00;99.90
16076;DHT22;8142;48.242;11.644;2023-05-14T04:13:56;10.90;99.90
16076;DHT22;8142;48.242;11.644;2023-05-14T04:16:22;10.70;99.90
16076;DHT22;8142;48.242;11.644;2023-05-14T04:18:48;10.50;99.90
16076;DHT22;8142;48.242;11.644;2023-05-14T04:21:13;10.50;99.90
16076;DHT22;8142;48.242;11.644;2023-05-14T04:23:40;10.60;99.90
16076;DHT22;8142;48.242;11.644;2023-05-14T04:26:05;10.40;99.90
16076;DHT22;8142;48.242;11.644;2023-05-14T04:28:31;10.40;99.90
16076;DHT22;8142;48.242;11.644;2023-05-14T04:30:57;10.30;99.90
16076;DHT22;8142;48.242;11.644;2023-05-14T04:33:23;10.20;99.90
16076;DHT22;8142;48.242;11.644;2023-05-14T04:35:49;10.20;99.90
16076;DHT22;8142;48.242;11.644;2023-05-14T04:38:15;10.10;99.90
16076;DHT22;8142;48.242;11.644;2023-05-14T04:40:41;10.10;99.90
16076;DHT22;8142;48.242;11.644;2023-05-14T04:43:07;10.10;99.90
16076;DHT22;8142;48.242;11.644;2023-05-14T04:45:33;10.00;99.90
16076;DHT22;8142;48.242;11.644;2023-05-14T04:47:59;10.00;99.90
16076;DHT22;8142;48.242;11.644;2023-05-14T04:50:25;10.00;99.90
16076;DHT22;8142;48.242;11.644;2023-05-14T04:52:51;10.00;99.90
16076;DHT22;8142;48.242;11.644;2023-05-14T04:55:17;10.00;99.90
16076;DHT22;8142;48.242;11.644;2023-05-14T04:57:42;10.00;99.90
16076;DHT22;8142;48.242;11.644;2023-05-14T05:00:09;10.00;99.90
16076;DHT22;8142;48.242;11.644;2023-05-14T05:02:35;10.10;99.90
16076;DHT22;8142;48.242;11.644;2023-05-14T05:05:02;10.20;99.90
16076;DHT22;8142;48.242;11.644;2023-05-14T05:07:28;10.30;99.90
16076;DHT22;8142;48.242;11.644;2023-05-14T05:09:54;10.40;99.90
16076;DHT22;8142;48.242;11.644;2023-05-14T05:12:20;10.40;99.90
16076;DHT22;8142;48.242;11.644;2023-05-14T05:14:46;10.50;99.90
16076;DHT22;8142;48.242;11.644;2023-05-14T05:17:12;10.60;99.90
16076;DHT22;8142;48.242;11.644;2023-05-14T05:19:37;10.60;99.90
16076;DHT22;8142;48.242;11.644;2023-05-14T05:22:06;10.70;99.90
16076;DHT22;8142;48.242;11.644;2023-05-14T05:24:32;10.70;99.90
16076;DHT22;8142;48.242;11.644;2023-05-14T05:26:58;10.80;99.90
16076;DHT22;8142;48.242;11.644;2023-05-14T05:29:24;10.80;99.90
16076;DHT22;8142;48.242;11.644;2023-05-14T05:31:49;10.90;99.90
16076;DHT22;8142;48.242;11.644;2023-05-14T05:34:15;10.90;99.90
16076;DHT22;8142;48.242;11.644;2023-05-14T05:36:41;11.00;99.90
16076;DHT22;8142;48.242;11.644;2023-05-14T05:39:07;11.00;99.90
16076;DHT22;8142;48.242;11.644;2023-05-14T05:41:33;11.10;99.90
16076;DHT22;8142;48.242;11.644;2023-05-14T05:43:59;11.20;99.90
16076;DHT22;8142;48.242;11.644;2023-05-14T05:46:25;11.20;99.90
16076;DHT22;8142;48.242;11.644;2023-05-14T05:48:51;11.20;99.90
16076;DHT22;8142;48.242;11.644;2023-05-14T05:51:17;11.30;99.90
16076;DHT22;8142;48.242;11.644;2023-05-14T05:53:43;11.30;99.90
16076;DHT22;8142;48.242;11.644;2023-05-14T05:56:09;11.20;99.90
16076;DHT22;8142;48.242;11.644;2023-05-14T05:58:35;11.30;99.90
16076;DHT22;8142;48.242;11.644;2023-05-14T06:01:01;11.30;99.90
16076;DHT22;8142;48.242;11.644;2023-05-14T06:03:27;11.30;99.90
16076;DHT22;8142;48.242;11.644;2023-05-14T06:05:53;11.30;99.90
16076;DHT22;8142;48.242;11.644;2023-05-14T06:08:19;11.40;99.90
16076;DHT22;8142;48.242;11.644;2023-05-14T06:10:45;11.40;99.90
16076;DHT22;8142;48.242;11.644;2023-05-14T06:13:11;11.30;99.90
16076;DHT22;8142;48.242;11.644;2023-05-14T06:15:37;11.50;99.90
16076;DHT22;8142;48.242;11.644;2023-05-14T06:18:03;11.40;99.90
16076;DHT22;8142;48.242;11.644;2023-05-14T06:20:29;11.40;99.90
16076;DHT22;8142;48.242;11.644;2023-05-14T06:22:55;11.40;99.90
16076;DHT22;8142;48.242;11.644;2023-05-14T06:25:21;11.50;99.90
16076;DHT22;8142;48.242;11.644;2023-05-14T06:27:49;11.50;99.90
16076;DHT22;8142;48.242;11.644;2023-05-14T06:30:15;11.60;99.90
16076;DHT22;8142;48.242;11.644;2023-05-14T06:32:41;11.70;99.90
16076;DHT22;8142;48.242;11.644;2023-05-14T06:35:07;11.60;99.90
16076;DHT22;8142;48.242;11.644;2023-05-14T06:37:33;11.70;99.90
16076;DHT22;8142;48.242;11.644;2023-05-14T06:40:00;11.80;99.90
16076;DHT22;8142;48.242;11.644;2023-05-14T06:42:26;11.80;99.90
16076;DHT22;8142;48.242;11.644;2023-05-14T06:44:52;11.70;99.90
16076;DHT22;8142;48.242;11.644;2023-05-14T06:47:17;11.80;99.90
16076;DHT22;8142;48.242;11.644;2023-05-14T06:49:43;11.80;99.90
16076;DHT22;8142;48.242;11.644;2023-05-14T06:52:09;11.70;99.90
16076;DHT22;8142;48.242;11.644;2023-05-14T06:54:35;11.70;99.90
16076;DHT22;8142;48.242;11.644;2023-05-14T06:57:01;11.50;99.90
16076;DHT22;8142;48.242;11.644;2023-05-14T06:59:27;11.40;99.90
16076;DHT22;8142;48.242;11.644;2023-05-14T07:01:53;11.20;99.90
16076;DHT22;8142;48.242;11.644;2023-05-14T07:04:19;11.10;99.90
16076;DHT22;8142;48.242;11.644;2023-05-14T07:06:45;11.00;99.90
16076;DHT22;8142;48.242;11.644;2023-05-14T07:09:11;10.90;99.90
16076;DHT22;8142;48.242;11.644;2023-05-14T07:11:37;10.90;99.90
16076;DHT22;8142;48.242;11.644;2023-05-14T07:14:03;10.90;99.90
16076;DHT22;8142;48.242;11.644;2023-05-14T07:16:29;10.80;99.90
16076;DHT22;8142;48.242;11.644;2023-05-14T07:18:55;10.80;99.90
16076;DHT22;8142;48.242;11.644;2023-05-14T07:21:21;10.70;99.90
16076;DHT22;8142;48.242;11.644;2023-05-14T07:23:47;10.70;99.90
16076;DHT22;8142;48.242;11.644;2023-05-14T07:26:13;10.70;99.90
16076;DHT22;8142;48.242;11.644;2023-05-14T07:28:38;10.70;99.90
16076;DHT22;8142;48.242;11.644;2023-05-14T07:31:04;10.70;99.90
16076;DHT22;8142;48.242;11.644;2023-05-14T07:33:36;10.70;99.90
16076;DHT22;8142;48.242;11.644;2023-05-14T07:36:02;10.60;99.90
16076;DHT22;8142;48.242;11.644;2023-05-14T07:38:30;10.70;99.90
16076;DHT22;8142;48.242;11.644;2023-05-14T07:40:56;10.70;99.90
16076;DHT22;8142;48.242;11.644;2023-05-14T07:43:22;10.70;99.90
16076;DHT22;8142;48.242;11.644;2023-05-14T07:45:48;10.70;99.90
16076;DHT22;8142;48.242;11.644;2023-05-14T07:48:14;10.80;99.90
16076;DHT22;8142;48.242;11.644;2023-05-14T07:50:40;10.80;99.90
16076;DHT22;8142;48.242;11.644;2023-05-14T07:53:06;10.80;99.90
16076;DHT22;8142;48.242;11.644;2023-05-14T07:55:32;10.90;99.90
16076;DHT22;8142;48.242;11.644;2023-05-14T07:57:58;10.90;99.90
16076;DHT22;8142;48.242;11.644;2023-05-14T08:00:23;11.00;99.90
16076;DHT22;8142;48.242;11.644;2023-05-14T08:02:49;11.00;99.90
16076;DHT22;8142;48.242;11.644;2023-05-14T08:05:16;11.00;99.90
16076;DHT22;8142;48.242;11.644;2023-05-14T08:07:43;11.00;99.90
16076;DHT22;8142;48.242;11.644;2023-05-14T08:10:09;11.10;99.90
16076;DHT22;8142;48.242;11.644;2023-05-14T08:12:35;11.10;99.90
16076;DHT22;8142;48.242;11.644;2023-05-14T08:15:01;11.20;99.90
16076;DHT22;8142;48.242;11.644;2023-05-14T08:17:27;11.30;99.90
16076;DHT22;8142;48.242;11.644;2023-05-14T08:19:53;11.30;99.90
16076;DHT22;8142;48.242;11.644;2023-05-14T08:22:19;11.40;99.90
16076;DHT22;8142;48.242;11.644;2023-05-14T08:24:45;11.40;99.90
16076;DHT22;8142;48.242;11.644;2023-05-14T08:27:10;11.50;99.90
16076;DHT22;8142;48.242;11.644;2023-05-14T08:29:36;11.50;99.90
16076;DHT22;8142;48.242;11.644;2023-05-14T08:32:02;11.60;99.90
16076;DHT22;8142;48.242;11.644;2023-05-14T08:34:28;11.60;99.90
16076;DHT22;8142;48.242;11.644;2023-05-14T08:36:54;11.60;99.90
16076;DHT22;8142;48.242;11.644;2023-05-14T08:39:20;11.70;99.90
16076;DHT22;8142;48.242;11.644;2023-05-14T08:41:46;11.70;99.90
16076;DHT22;8142;48.242;11.644;2023-05-14T08:44:17;11.70;99.90
16076;DHT22;8142;48.242;11.644;2023-05-14T08:46:43;11.70;99.90
16076;DHT22;8142;48.242;11.644;2023-05-14T08:51:55;11.80;99.90
16076;DHT22;8142;48.242;11.644;2023-05-14T08:54:21;11.90;99.90
16076;DHT22;8142;48.242;11.644;2023-05-14T08:56:50;11.90;99.90
16076;DHT22;8142;48.242;11.644;2023-05-14T08:59:16;11.90;99.90
16076;DHT22;8142;48.242;11.644;2023-05-14T09:01:46;12.00;99.90
16076;DHT22;8142;48.242;11.644;2023-05-14T09:04:19;12.00;99.90
16076;DHT22;8142;48.242;11.644;2023-05-14T09:06:49;12.10;99.90
16076;DHT22;8142;48.242;11.644;2023-05-14T09:09:15;12.20;99.90
16076;DHT22;8142;48.242;11.644;2023-05-14T09:11:42;12.20;99.90
16076;DHT22;8142;48.242;11.644;2023-05-14T09:14:10;12.20;99.90
16076;DHT22;8142;48.242;11.644;2023-05-14T09:16:36;12.30;99.90
16076;DHT22;8142;48.242;11.644;2023-05-14T09:19:06;12.10;99.90
16076;DHT22;8142;48.242;11.644;2023-05-14T09:21:32;12.30;99.90
16076;DHT22;8142;48.242;11.644;2023-05-14T09:23:59;12.30;99.90
16076;DHT22;8142;48.242;11.644;2023-05-14T09:26:25;12.30;99.90
16076;DHT22;8142;48.242;11.644;2023-05-14T09:28:56;12.30;99.90
16076;DHT22;8142;48.242;11.644;2023-05-14T09:31:30;12.30;99.90
16076;DHT22;8142;48.242;11.644;2023-05-14T09:33:57;12.30;99.90
16076;DHT22;8142;48.242;11.644;2023-05-14T09:36:24;12.30;99.90
16076;DHT22;8142;48.242;11.644;2023-05-14T09:38:55;12.30;99.90
16076;DHT22;8142;48.242;11.644;2023-05-14T09:41:21;12.30;99.90
16076;DHT22;8142;48.242;11.644;2023-05-14T09:43:49;12.40;99.90
16076;DHT22;8142;48.242;11.644;2023-05-14T09:46:15;12.40;99.90
16076;DHT22;8142;48.242;11.644;2023-05-14T09:48:41;12.20;99.90
16076;DHT22;8142;48.242;11.644;2023-05-14T09:51:08;12.50;99.90
16076;DHT22;8142;48.242;11.644;2023-05-14T09:53:35;12.40;99.90
16076;DHT22;8142;48.242;11.644;2023-05-14T09:56:00;12.50;99.90
16076;DHT22;8142;48.242;11.644;2023-05-14T09:58:26;12.40;99.90
16076;DHT22;8142;48.242;11.644;2023-05-14T10:00:54;12.40;99.90
16076;DHT22;8142;48.242;11.644;2023-05-14T10:03:24;12.40;99.90
16076;DHT22;8142;48.242;11.644;2023-05-14T10:05:50;12.40;99.90
16076;DHT22;8142;48.242;11.644;2023-05-14T10:08:23;12.40;99.90
16076;DHT22;8142;48.242;11.644;2023-05-14T10:10:53;12.40;99.90
16076;DHT22;8142;48.242;11.644;2023-05-14T10:13:27;12.40;99.90
16076;DHT22;8142;48.242;11.644;2023-05-14T10:16:16;12.50;99.90
16076;DHT22;8142;48.242;11.644;2023-05-14T10:18:46;12.50;99.90
16076;DHT22;8142;48.242;11.644;2023-05-14T10:21:19;12.50;99.90
16076;DHT22;8142;48.242;11.644;2023-05-14T10:23:46;12.50;99.90
16076;DHT22;8142;48.242;11.644;2023-05-14T10:26:12;12.60;99.90
16076;DHT22;8142;48.242;11.644;2023-05-14T10:28:39;12.60;99.90
16076;DHT22;8142;48.242;11.644;2023-05-14T10:31:08;12.50;99.90
16076;DHT22;8142;48.242;11.644;2023-05-14T10:33:48;12.50;99.90
16076;DHT22;8142;48.242;11.644;2023-05-14T10:36:16;12.40;99.90
16076;DHT22;8142;48.242;11.644;2023-05-14T10:38:43;12.30;99.90
16076;DHT22;8142;48.242;11.644;2023-05-14T10:41:13;12.20;99.90
16076;DHT22;8142;48.242;11.644;2023-05-14T10:43:46;12.10;99.90
16076;DHT22;8142;48.242;11.644;2023-05-14T10:46:13;12.10;99.90
16076;DHT22;8142;48.242;11.644;2023-05-14T10:48:41;12.10;99.90
16076;DHT22;8142;48.242;11.644;2023-05-14T10:51:08;12.10;99.90
16076;DHT22;8142;48.242;11.644;2023-05-14T10:53:37;12.20;99.90
16076;DHT22;8142;48.242;11.644;2023-05-14T10:56:05;12.20;99.90
16076;DHT22;8142;48.242;11.644;2023-05-14T10:58:35;12.30;99.90
16076;DHT22;8142;48.242;11.644;2023-05-14T11:01:01;12.30;99.90
16076;DHT22;8142;48.242;11.644;2023-05-14T11:03:30;12.40;99.90
16076;DHT22;8142;48.242;11.644;2023-05-14T11:05:58;12.50;99.90
16076;DHT22;8142;48.242;11.644;2023-05-14T11:08:25;12.50;99.90
16076;DHT22;8142;48.242;11.644;2023-05-14T11:10:53;12.60;99.90
16076;DHT22;8142;48.242;11.644;2023-05-14T11:13:19;12.60;99.90
16076;DHT22;8142;48.242;11.644;2023-05-14T11:15:46;12.80;99.90
16076;DHT22;8142;48.242;11.644;2023-05-14T11:18:13;12.80;99.90
16076;DHT22;8142;48.242;11.644;2023-05-14T11:20:39;12.90;99.90
16076;DHT22;8142;48.242;11.644;2023-05-14T11:23:05;13.00;99.90
16076;DHT22;8142;48.242;11.644;2023-05-14T11:25:31;12.90;99.90
16076;DHT22;8142;48.242;11.644;2023-05-14T11:27:57;13.10;99.90
16076;DHT22;8142;48.242;11.644;2023-05-14T11:30:25;13.10;99.90
16076;DHT22;8142;48.242;11.644;2023-05-14T11:32:51;13.10;99.90
16076;DHT22;8142;48.242;11.644;2023-05-14T11:35:18;13.10;99.90
16076;DHT22;8142;48.242;11.644;2023-05-14T11:37:51;13.10;99.90
16076;DHT22;8142;48.242;11.644;2023-05-14T11:40:17;13.20;99.90
16076;DHT22;8142;48.242;11.644;2023-05-14T11:42:43;13.20;99.90
16076;DHT22;8142;48.242;11.644;2023-05-14T11:45:10;13.30;99.90
16076;DHT22;8142;48.242;11.644;2023-05-14T11:47:37;13.20;99.90
16076;DHT22;8142;48.242;11.644;2023-05-14T11:50:03;13.20;99.90
16076;DHT22;8142;48.242;11.644;2023-05-14T11:52:29;13.30;99.90
16076;DHT22;8142;48.242;11.644;2023-05-14T11:54:55;13.40;99.90
16076;DHT22;8142;48.242;11.644;2023-05-14T11:57:22;13.40;99.90
16076;DHT22;8142;48.242;11.644;2023-05-14T11:59:48;13.50;99.90
16076;DHT22;8142;48.242;11.644;2023-05-14T12:02:20;13.60;99.90
16076;DHT22;8142;48.242;11.644;2023-05-14T12:04:50;13.70;99.90
16076;DHT22;8142;48.242;11.644;2023-05-14T12:07:18;13.90;99.90
16076;DHT22;8142;48.242;11.644;2023-05-14T12:09:46;13.90;99.90
16076;DHT22;8142;48.242;11.644;2023-05-14T12:12:18;13.90;99.90
16076;DHT22;8142;48.242;11.644;2023-05-14T12:14:46;14.00;99.90
16076;DHT22;8142;48.242;11.644;2023-05-14T12:17:14;14.00;99.90
16076;DHT22;8142;48.242;11.644;2023-05-14T12:19:41;14.10;99.90
16076;DHT22;8142;48.242;11.644;2023-05-14T12:22:09;14.10;99.90
16076;DHT22;8142;48.242;11.644;2023-05-14T12:24:35;14.20;99.90
16076;DHT22;8142;48.242;11.644;2023-05-14T12:27:01;14.20;99.90
16076;DHT22;8142;48.242;11.644;2023-05-14T12:29:27;14.20;99.90
16076;DHT22;8142;48.242;11.644;2023-05-14T12:31:56;14.20;99.90
16076;DHT22;8142;48.242;11.644;2023-05-14T12:34:23;14.30;99.90
16076;DHT22;8142;48.242;11.644;2023-05-14T12:36:49;14.30;99.90
16076;DHT22;8142;48.242;11.644;2023-05-14T12:39:14;14.30;99.90
16076;DHT22;8142;48.242;11.644;2023-05-14T12:41:40;14.30;99.90
16076;DHT22;8142;48.242;11.644;2023-05-14T12:44:06;14.30;99.90
16076;DHT22;8142;48.242;11.644;2023-05-14T12:46:32;14.40;99.90
16076;DHT22;8142;48.242;11.644;2023-05-14T12:48:59;14.40;99.90
16076;DHT22;8142;48.242;11.644;2023-05-14T12:51:28;14.40;99.90
16076;DHT22;8142;48.242;11.644;2023-05-14T12:53:54;14.40;99.90
16076;DHT22;8142;48.242;11.644;2023-05-14T12:56:20;14.30;99.90
16076;DHT22;8142;48.242;11.644;2023-05-14T12:58:53;14.50;99.90
16076;DHT22;8142;48.242;11.644;2023-05-14T13:01:19;14.50;99.90
16076;DHT22;8142;48.242;11.644;2023-05-14T13:03:45;14.50;99.90
16076;DHT22;8142;48.242;11.644;2023-05-14T13:06:11;14.50;99.90
16076;DHT22;8142;48.242;11.644;2023-05-14T13:08:38;14.50;99.90
16076;DHT22;8142;48.242;11.644;2023-05-14T13:11:03;14.50;99.90
16076;DHT22;8142;48.242;11.644;2023-05-14T13:13:29;14.50;99.90
16076;DHT22;8142;48.242;11.644;2023-05-14T13:15:55;14.50;99.90
16076;DHT22;8142;48.242;11.644;2023-05-14T13:18:21;14.50;99.90
16076;DHT22;8142;48.242;11.644;2023-05-14T13:20:47;14.50;99.90
16076;DHT22;8142;48.242;11.644;2023-05-14T13:23:13;14.50;99.90
16076;DHT22;8142;48.242;11.644;2023-05-14T13:25:39;14.50;99.90
16076;DHT22;8142;48.242;11.644;2023-05-14T13:28:05;14.50;99.90
16076;DHT22;8142;48.242;11.644;2023-05-14T13:30:31;14.40;99.90
16076;DHT22;8142;48.242;11.644;2023-05-14T13:32:58;14.40;99.90
16076;DHT22;8142;48.242;11.644;2023-05-14T13:35:24;14.40;99.90
16076;DHT22;8142;48.242;11.644;2023-05-14T13:37:50;14.40;99.90
16076;DHT22;8142;48.242;11.644;2023-05-14T13:40:15;14.50;99.90
16076;DHT22;8142;48.242;11.644;2023-05-14T13:42:41;14.50;99.90
16076;DHT22;8142;48.242;11.644;2023-05-14T13:45:08;14.50;99.90
16076;DHT22;8142;48.242;11.644;2023-05-14T13:47:34;14.50;99.90
16076;DHT22;8142;48.242;11.644;2023-05-14T13:50:00;14.50;99.90
16076;DHT22;8142;48.242;11.644;2023-05-14T13:52:26;14.60;99.90
16076;DHT22;8142;48.242;11.644;2023-05-14T13:54:52;14.60;99.90
16076;DHT22;8142;48.242;11.644;2023-05-14T13:57:20;14.60;99.90
16076;DHT22;8142;48.242;11.644;2023-05-14T13:59:47;14.70;99.90
16076;DHT22;8142;48.242;11.644;2023-05-14T14:02:14;14.70;99.90
16076;DHT22;8142;48.242;11.644;2023-05-14T14:04:40;14.70;99.90
16076;DHT22;8142;48.242;11.644;2023-05-14T14:07:06;14.70;99.90
16076;DHT22;8142;48.242;11.644;2023-05-14T14:09:32;14.80;99.90
16076;DHT22;8142;48.242;11.644;2023-05-14T14:12:03;14.80;99.90
16076;DHT22;8142;48.242;11.644;2023-05-14T14:14:29;14.80;99.90
16076;DHT22;8142;48.242;11.644;2023-05-14T14:16:55;14.90;99.90
16076;DHT22;8142;48.242;11.644;2023-05-14T14:19:21;14.90;99.90
16076;DHT22;8142;48.242;11.644;2023-05-14T14:21:47;15.00;99.90
16076;DHT22;8142;48.242;11.644;2023-05-14T14:24:13;14.90;99.90
16076;DHT22;8142;48.242;11.644;2023-05-14T14:26:38;15.00;99.90
16076;DHT22;8142;48.242;11.644;2023-05-14T14:29:04;15.10;99.90
16076;DHT22;8142;48.242;11.644;2023-05-14T14:31:30;15.10;99.90
16076;DHT22;8142;48.242;11.644;2023-05-14T14:33:56;15.10;99.90
16076;DHT22;8142;48.242;11.644;2023-05-14T14:36:22;15.20;99.90
16076;DHT22;8142;48.242;11.644;2023-05-14T14:38:48;15.20;99.90
16076;DHT22;8142;48.242;11.644;2023-05-14T14:41:13;15.20;99.90
16076;DHT22;8142;48.242;11.644;2023-05-14T14:43:40;15.20;99.90
16076;DHT22;8142;48.242;11.644;2023-05-14T14:46:06;15.20;99.90
16076;DHT22;8142;48.242;11.644;2023-05-14T14:48:35;15.20;99.90
16076;DHT22;8142;48.242;11.644;2023-05-14T14:51:07;15.30;99.90
16076;DHT22;8142;48.242;11.644;2023-05-14T14:53:34;15.30;99.90
16076;DHT22;8142;48.242;11.644;2023-05-14T14:56:01;15.30;99.90
16076;DHT22;8142;48.242;11.644;2023-05-14T14:58:27;15.30;99.90
16076;DHT22;8142;48.242;11.644;2023-05-14T15:00:54;15.50;99.90
16076;DHT22;8142;48.242;11.644;2023-05-14T15:03:21;15.50;99.90
16076;DHT22;8142;48.242;11.644;2023-05-14T15:05:47;15.50;99.90
16076;DHT22;8142;48.242;11.644;2023-05-14T15:08:14;15.70;99.90
16076;DHT22;8142;48.242;11.644;2023-05-14T15:10:41;15.70;99.90
16076;DHT22;8142;48.242;11.644;2023-05-14T15:13:07;15.80;99.90
16076;DHT22;8142;48.242;11.644;2023-05-14T15:15:34;15.80;99.90
16076;DHT22;8142;48.242;11.644;2023-05-14T15:18:01;15.90;99.90
16076;DHT22;8142;48.242;11.644;2023-05-14T15:20:27;15.90;99.90
16076;DHT22;8142;48.242;11.644;2023-05-14T15:22:54;15.90;99.90
16076;DHT22;8142;48.242;11.644;2023-05-14T15:25:21;15.90;99.90
16076;DHT22;8142;48.242;11.644;2023-05-14T15:27:47;15.90;99.90
16076;DHT22;8142;48.242;11.644;2023-05-14T15:30:14;15.90;99.90
16076;DHT22;8142;48.242;11.644;2023-05-14T15:32:42;16.00;99.90